Time;durP1;ratioP1;P1;durP2;ratioP2;P2;SDS_P1;SDS_P2;PMS_P1;PMS_P2;Temp;Humidity;BMP_temperature;BMP_pressure;BME280_temperature;BME280_humidity;BME280_pressure;Samples;Min_cycle;Max_cycle;Signal;HPM_P1;HPM_P2
2021/03/19 00:00:31;;;;;;;10.77;8.10;;;2.50;99.90;;;;;;4866774;29;20474;-94
2021/03/19 00:02:57;;;;;;;9.37;8.37;;;2.60;99.90;;;;;;4862478;29;20406;-95
2021/03/19 00:05:25;;;;;;;8.53;7.57;;;2.60;99.90;;;;;;4881410;29;20233;-95
2021/03/19 00:07:52;;;;;;;8.10;7.30;;;2.60;99.90;;;;;;4860566;29;20204;-95
2021/03/19 00:10:24;;;;;;;11.50;7.70;;;2.50;99.90;;;;;;4865280;29;20470;-92
2021/03/19 00:12:50;;;;;;;10.00;7.80;;;2.50;99.90;;;;;;4857070;29;20485;-93
2021/03/19 00:15:19;;;;;;;8.67;7.43;;;2.40;99.90;;;;;;4867370;29;20490;-93
2021/03/19 00:17:45;;;;;;;8.37;6.90;;;2.40;99.90;;;;;;4861101;29;20470;-93
2021/03/19 00:20:12;;;;;;;6.90;6.20;;;2.40;99.90;;;;;;4881235;29;20467;-94
2021/03/19 00:22:38;;;;;;;8.57;7.67;;;2.50;99.90;;;;;;4860548;29;20446;-95
2021/03/19 00:25:06;;;;;;;6.83;6.23;;;2.40;99.90;;;;;;4866279;29;20769;-94
2021/03/19 00:27:33;;;;;;;8.10;7.20;;;2.30;99.90;;;;;;4861140;29;20459;-94
2021/03/19 00:29:58;;;;;;;8.77;6.90;;;2.20;99.90;;;;;;4880121;29;20887;-94
2021/03/19 00:32:24;;;;;;;8.43;7.53;;;2.20;99.90;;;;;;4874316;29;20469;-95
2021/03/19 00:34:50;;;;;;;7.63;6.90;;;2.40;99.90;;;;;;4861697;29;23090;-94
2021/03/19 00:37:15;;;;;;;8.07;7.10;;;2.40;99.90;;;;;;4861184;29;20667;-94
2021/03/19 00:39:41;;;;;;;7.43;6.13;;;2.40;99.90;;;;;;4866874;29;20212;-94
2021/03/19 00:42:08;;;;;;;7.27;6.53;;;2.50;99.90;;;;;;4868767;29;20593;-93
2021/03/19 00:44:35;;;;;;;6.20;5.60;;;2.50;99.90;;;;;;4867036;29;20188;-94
2021/03/19 00:47:01;;;;;;;9.43;6.10;;;2.50;99.90;;;;;;4865731;29;20694;-94
2021/03/19 00:49:27;;;;;;;7.20;5.83;;;2.60;99.90;;;;;;4863434;29;20459;-94
2021/03/19 00:51:53;;;;;;;7.50;5.53;;;2.60;99.90;;;;;;4847977;29;20462;-95
2021/03/19 00:54:19;;;;;;;6.87;6.17;;;2.60;99.90;;;;;;4879803;29;20220;-94
2021/03/19 00:56:44;;;;;;;6.57;5.50;;;2.50;99.90;;;;;;4866516;29;21003;-95
2021/03/19 00:59:10;;;;;;;8.20;5.83;;;2.40;99.90;;;;;;4867169;29;20560;-94
2021/03/19 01:01:36;;;;;;;5.20;4.70;;;2.40;99.90;;;;;;4869797;29;20185;-92
2021/03/19 01:04:06;;;;;;;7.17;5.53;;;2.40;99.90;;;;;;4863158;29;20297;-92
2021/03/19 01:06:32;;;;;;;8.27;5.77;;;2.40;99.90;;;;;;4881002;29;20525;-92
2021/03/19 01:08:58;;;;;;;8.37;6.00;;;2.30;99.90;;;;;;4862777;29;20698;-91
2021/03/19 01:11:26;;;;;;;6.67;4.80;;;2.40;99.90;;;;;;4866492;29;21095;-93
2021/03/19 01:13:52;;;;;;;6.20;5.60;;;2.40;99.90;;;;;;4865181;29;20565;-92
2021/03/19 01:16:18;;;;;;;9.33;5.73;;;2.40;99.90;;;;;;4858544;29;20803;-93
2021/03/19 01:18:44;;;;;;;7.90;5.60;;;2.40;99.90;;;;;;4866493;29;20461;-92
2021/03/19 01:21:09;;;;;;;6.83;5.13;;;2.50;99.90;;;;;;4864365;29;20188;-92
2021/03/19 01:23:35;;;;;;;6.07;5.20;;;2.50;99.90;;;;;;4861423;29;20208;-92
2021/03/19 01:26:01;;;;;;;7.60;6.10;;;2.50;99.90;;;;;;4863908;29;20296;-91
2021/03/19 01:28:26;;;;;;;9.60;5.53;;;2.50;99.90;;;;;;4860987;29;20683;-92
2021/03/19 01:30:52;;;;;;;6.40;5.80;;;2.50;99.90;;;;;;4865669;29;20194;-91
2021/03/19 01:33:18;;;;;;;8.50;7.23;;;2.50;99.90;;;;;;4861958;29;20236;-94
2021/03/19 01:35:45;;;;;;;8.00;7.13;;;2.50;99.90;;;;;;4864963;29;20235;-94
2021/03/19 01:38:11;;;;;;;8.23;6.93;;;2.40;99.90;;;;;;4865899;29;20449;-94
2021/03/19 01:40:43;;;;;;;10.23;8.07;;;2.30;99.90;;;;;;4865887;29;21023;-94
2021/03/19 01:43:11;;;;;;;8.13;6.87;;;2.30;99.90;;;;;;4876560;29;20466;-94
2021/03/19 01:46:15;;;;;;;7.23;6.53;;;2.10;99.90;;;;;;4869451;29;20465;-94
2021/03/19 01:49:18;;;;;;;8.20;7.20;;;2.00;99.90;;;;;;4864460;29;20460;-94
2021/03/19 01:52:21;;;;;;;11.73;7.50;;;2.00;99.90;;;;;;4870338;29;20468;-94
2021/03/19 01:55:24;;;;;;;7.73;6.93;;;1.90;99.90;;;;;;4869783;29;20501;-93
2021/03/19 01:58:28;;;;;;;7.90;6.53;;;1.90;99.90;;;;;;4866296;29;21183;-94
2021/03/19 02:01:31;;;;;;;8.30;7.57;;;1.90;99.90;;;;;;4863011;29;20824;-94
2021/03/19 02:04:34;;;;;;;8.63;7.83;;;1.80;99.90;;;;;;4865822;29;20546;-93
2021/03/19 02:07:37;;;;;;;9.37;7.80;;;1.80;99.90;;;;;;4866676;29;20605;-93
2021/03/19 02:10:41;;;;;;;14.93;8.67;;;1.70;99.90;;;;;;4864302;29;21087;-94
2021/03/19 02:13:44;;;;;;;11.60;9.33;;;1.60;99.90;;;;;;4867238;29;20464;-94
2021/03/19 02:16:47;;;;;;;11.23;8.60;;;1.50;99.90;;;;;;4869081;29;20507;-94
2021/03/19 02:19:50;;;;;;;10.63;9.33;;;1.50;99.90;;;;;;4866436;29;20454;-93
2021/03/19 02:22:54;;;;;;;13.03;9.33;;;1.40;99.90;;;;;;4864706;29;20437;-94
2021/03/19 02:25:57;;;;;;;9.77;8.77;;;1.40;99.90;;;;;;4864271;29;20488;-93
2021/03/19 02:29:01;;;;;;;10.40;9.00;;;1.40;99.90;;;;;;4871322;29;21665;-95
2021/03/19 02:31:52;;;;;;;10.00;9.00;;;1.40;99.90;;;;;;4863786;29;20545;-95
2021/03/19 02:34:18;;;;;;;10.70;8.70;;;1.30;99.90;;;;;;4881796;29;20480;-94
2021/03/19 02:36:44;;;;;;;9.60;8.70;;;1.30;99.90;;;;;;4865987;29;20548;-94
2021/03/19 02:39:10;;;;;;;11.60;8.87;;;1.30;99.90;;;;;;4864697;29;20540;-94
2021/03/19 02:41:35;;;;;;;11.87;9.13;;;1.30;99.90;;;;;;4872147;29;20248;-94
2021/03/19 02:44:01;;;;;;;12.90;9.83;;;1.20;99.90;;;;;;4874845;29;20193;-93
2021/03/19 02:46:27;;;;;;;12.30;9.60;;;1.20;99.90;;;;;;4864019;29;20441;-94
2021/03/19 02:48:52;;;;;;;11.37;10.03;;;1.20;99.90;;;;;;4865307;29;20212;-93
2021/03/19 02:51:18;;;;;;;11.93;10.67;;;1.30;99.90;;;;;;4864160;29;20282;-94
2021/03/19 02:53:44;;;;;;;13.00;10.70;;;1.30;99.90;;;;;;4866550;29;20248;-93
2021/03/19 02:56:11;;;;;;;15.13;10.77;;;1.40;99.90;;;;;;4868525;29;20201;-94
2021/03/19 02:58:37;;;;;;;14.43;9.97;;;1.50;99.90;;;;;;4864857;29;20220;-93
2021/03/19 03:01:04;;;;;;;11.27;10.10;;;1.50;99.90;;;;;;4865074;29;20537;-95
2021/03/19 03:03:30;;;;;;;11.57;10.27;;;1.50;99.90;;;;;;4868241;29;20497;-94
2021/03/19 03:05:59;;;;;;;10.93;9.40;;;1.50;99.90;;;;;;4868984;29;20482;-93
2021/03/19 03:08:25;;;;;;;11.07;9.87;;;1.50;99.90;;;;;;4880786;29;20446;-94
2021/03/19 03:10:54;;;;;;;11.20;10.00;;;1.40;99.90;;;;;;4872701;29;20445;-93
2021/03/19 03:13:20;;;;;;;12.70;10.70;;;1.40;99.90;;;;;;4864415;29;20542;-94
2021/03/19 03:15:46;;;;;;;13.50;10.93;;;1.30;99.90;;;;;;4860725;29;20853;-94
2021/03/19 03:18:13;;;;;;;14.37;11.23;;;1.20;99.90;;;;;;4879094;29;20309;-95
2021/03/19 03:20:45;;;;;;;12.93;10.23;;;1.20;99.90;;;;;;4868200;29;21504;-93
2021/03/19 03:23:12;;;;;;;11.20;10.20;;;1.10;99.90;;;;;;4866314;29;20829;-93
2021/03/19 03:25:38;;;;;;;12.97;10.03;;;1.20;99.90;;;;;;4865471;29;20465;-91
2021/03/19 03:28:04;;;;;;;13.97;10.70;;;1.10;99.90;;;;;;4869033;29;20968;-93
2021/03/19 03:30:32;;;;;;;13.57;11.00;;;1.00;99.90;;;;;;4867689;29;20453;-95
2021/03/19 03:33:06;;;;;;;12.50;10.57;;;1.00;99.90;;;;;;4878417;29;20556;-93
2021/03/19 03:35:32;;;;;;;13.20;11.67;;;1.00;99.90;;;;;;4868833;29;20516;-93
2021/03/19 03:37:59;;;;;;;13.17;10.37;;;0.90;99.90;;;;;;4862784;29;20492;-93
2021/03/19 03:40:32;;;;;;;11.27;9.83;;;1.00;99.90;;;;;;4865122;29;20454;-92
2021/03/19 03:42:58;;;;;;;14.40;11.17;;;1.00;99.90;;;;;;4864526;29;20450;-92
2021/03/19 03:45:24;;;;;;;11.87;10.23;;;1.00;99.90;;;;;;4877477;29;20449;-92
2021/03/19 03:47:49;;;;;;;12.40;11.10;;;1.00;99.90;;;;;;4863688;29;20197;-93
2021/03/19 03:50:19;;;;;;;14.70;12.30;;;0.90;99.90;;;;;;4875392;29;20457;-94
2021/03/19 03:52:44;;;;;;;12.50;11.30;;;0.90;99.90;;;;;;4863315;29;20792;-92
2021/03/19 03:55:11;;;;;;;15.60;11.97;;;0.90;99.90;;;;;;4861534;29;20551;-92
2021/03/19 03:57:38;;;;;;;15.00;13.20;;;1.00;99.90;;;;;;4874479;29;20204;-93
2021/03/19 04:00:09;;;;;;;13.17;11.87;;;1.00;99.90;;;;;;4867449;29;20457;-92
2021/03/19 04:02:36;;;;;;;13.57;11.23;;;1.10;99.90;;;;;;4860542;29;20481;-93
2021/03/19 04:05:04;;;;;;;12.93;11.53;;;1.20;99.90;;;;;;4872825;29;20484;-93
2021/03/19 04:07:30;;;;;;;14.40;12.90;;;1.30;99.90;;;;;;4875847;29;20441;-94
2021/03/19 04:09:55;;;;;;;13.67;12.27;;;1.40;99.90;;;;;;4864870;29;20585;-92
2021/03/19 04:12:22;;;;;;;15.00;11.33;;;1.50;99.90;;;;;;4868376;29;20216;-94
2021/03/19 04:14:48;;;;;;;12.13;10.90;;;1.50;99.90;;;;;;4867381;29;20227;-94
2021/03/19 04:17:29;;;;;;;12.60;10.97;;;1.50;99.90;;;;;;4867182;29;20457;-92
2021/03/19 04:19:57;;;;;;;12.30;11.00;;;1.60;99.90;;;;;;4863652;29;20205;-93
2021/03/19 04:22:23;;;;;;;13.50;11.53;;;1.60;99.90;;;;;;4869095;29;20441;-93
2021/03/19 04:24:49;;;;;;;12.80;11.50;;;1.60;99.90;;;;;;4866114;29;20457;-94
2021/03/19 04:27:19;;;;;;;14.23;11.33;;;1.70;99.90;;;;;;4866821;29;20445;-93
2021/03/19 04:29:46;;;;;;;12.50;11.20;;;1.60;99.90;;;;;;4878482;29;20457;-93
2021/03/19 04:32:12;;;;;;;12.80;11.40;;;1.70;99.90;;;;;;4863935;29;20457;-93
2021/03/19 04:34:38;;;;;;;14.10;12.27;;;1.80;99.90;;;;;;4866169;29;20478;-94
2021/03/19 04:37:05;;;;;;;15.03;13.07;;;1.80;99.90;;;;;;4862702;29;20455;-94
2021/03/19 04:39:32;;;;;;;14.50;12.90;;;1.70;99.90;;;;;;4862270;29;20196;-94
2021/03/19 04:42:03;;;;;;;13.27;11.80;;;1.70;99.90;;;;;;4867122;29;20441;-94
2021/03/19 04:44:34;;;;;;;14.50;12.83;;;1.70;99.90;;;;;;4859400;29;20472;-93
2021/03/19 04:47:02;;;;;;;12.83;11.30;;;1.70;99.90;;;;;;4870144;29;20436;-93
2021/03/19 04:49:28;;;;;;;12.90;11.50;;;1.70;99.90;;;;;;4863168;29;20484;-94
2021/03/19 04:51:57;;;;;;;13.80;11.53;;;1.70;99.90;;;;;;4876408;29;20447;-95
2021/03/19 04:54:22;;;;;;;21.43;13.27;;;1.80;99.90;;;;;;4865063;29;20217;-92
2021/03/19 04:56:48;;;;;;;14.30;12.70;;;1.80;99.90;;;;;;4859875;29;21406;-93
2021/03/19 04:59:14;;;;;;;13.57;12.13;;;1.80;99.90;;;;;;4860816;29;20197;-94
2021/03/19 05:01:47;;;;;;;14.70;12.43;;;1.90;99.90;;;;;;4859389;29;20279;-93
2021/03/19 05:04:13;;;;;;;14.90;12.03;;;1.90;99.90;;;;;;4852865;29;20458;-93
2021/03/19 05:06:38;;;;;;;14.40;13.00;;;1.90;99.90;;;;;;4869424;29;20457;-91
2021/03/19 05:09:04;;;;;;;14.87;12.63;;;1.80;99.90;;;;;;4861684;29;20454;-92
2021/03/19 05:11:30;;;;;;;14.40;12.90;;;1.90;99.90;;;;;;4853274;29;20201;-90
2021/03/19 05:13:56;;;;;;;18.00;13.10;;;1.90;99.90;;;;;;4854187;29;20301;-89
2021/03/19 05:16:22;;;;;;;16.87;13.83;;;1.90;99.90;;;;;;4852403;29;20249;-92
2021/03/19 05:18:50;;;;;;;16.33;13.20;;;1.90;99.90;;;;;;4857576;29;20203;-93
2021/03/19 05:21:15;;;;;;;14.70;12.67;;;1.90;99.90;;;;;;4863905;29;20524;-93
2021/03/19 05:23:41;;;;;;;17.67;14.07;;;1.80;99.90;;;;;;4855634;29;20856;-95
2021/03/19 05:26:07;;;;;;;17.13;13.43;;;1.80;99.90;;;;;;4859914;29;20489;-93
2021/03/19 05:28:33;;;;;;;15.43;13.10;;;1.80;99.90;;;;;;4870474;29;20685;-96
2021/03/19 05:30:59;;;;;;;15.50;13.13;;;1.80;99.90;;;;;;4862713;29;20469;-91
2021/03/19 05:33:28;;;;;;;16.00;13.20;;;1.80;99.90;;;;;;4862304;29;20489;-94
2021/03/19 05:35:55;;;;;;;18.83;14.20;;;1.80;99.90;;;;;;4866759;29;20454;-93
2021/03/19 05:38:21;;;;;;;16.47;14.30;;;1.80;99.90;;;;;;4866121;29;20452;-94
2021/03/19 05:40:50;;;;;;;16.43;13.60;;;1.80;99.90;;;;;;4859984;29;20825;-92
2021/03/19 05:43:23;;;;;;;15.30;12.00;;;1.80;99.90;;;;;;4860574;29;20477;-93
2021/03/19 05:48:53;;;;;;;16.30;13.07;;;1.80;99.90;;;;;;5718405;23;21625;-96
2021/03/19 05:51:23;;;;;;;16.40;12.73;;;1.80;99.90;;;;;;4875258;29;21213;-94
2021/03/19 05:53:58;;;;;;;16.03;11.90;;;1.80;99.90;;;;;;4925857;23;20606;-96
2021/03/19 05:59:17;;;;;;;14.20;12.40;;;1.80;99.90;;;;;;5140612;23;20533;-92
2021/03/19 06:01:43;;;;;;;134.03;103.30;;;1.90;99.90;;;;;;4874507;29;20441;-94
2021/03/19 06:04:18;;;;;;;16.60;13.43;;;2.10;99.90;;;;;;4870854;29;20441;-96
2021/03/19 06:06:47;;;;;;;14.90;13.30;;;2.10;99.90;;;;;;4870700;29;20208;-96
2021/03/19 06:09:33;;;;;;;15.43;13.83;;;2.00;99.90;;;;;;4872364;29;20453;-94
2021/03/19 06:12:14;;;;;;;22.33;13.13;;;2.00;99.90;;;;;;4874911;29;20442;-93
2021/03/19 06:14:56;;;;;;;16.40;13.30;;;2.10;99.90;;;;;;4867642;29;20487;-92
2021/03/19 06:17:27;;;;;;;19.50;14.77;;;2.10;99.90;;;;;;4893912;29;20457;-91
2021/03/19 06:20:02;;;;;;;18.50;15.10;;;2.00;99.90;;;;;;4873897;29;20979;-89
2021/03/19 06:22:37;;;;;;;23.07;18.20;;;2.00;99.90;;;;;;4876736;29;21125;-95
2021/03/19 06:25:41;;;;;;;20.17;16.93;;;1.90;99.90;;;;;;4874896;29;20458;-89
2021/03/19 06:28:25;;;;;;;17.87;15.70;;;1.90;99.90;;;;;;4887471;29;20449;-91
2021/03/19 06:30:52;;;;;;;20.00;16.73;;;2.00;99.90;;;;;;4876632;29;20445;-92
2021/03/19 06:33:17;;;;;;;21.10;15.30;;;2.10;99.90;;;;;;4872013;29;20511;-91
2021/03/19 06:36:05;;;;;;;20.53;15.77;;;2.10;99.90;;;;;;4872614;29;20465;-92
2021/03/19 06:38:38;;;;;;;19.47;17.33;;;2.20;99.90;;;;;;4877308;29;20236;-91
2021/03/19 06:41:28;;;;;;;18.87;15.90;;;2.30;99.90;;;;;;4868969;29;20469;-91
2021/03/19 06:44:17;;;;;;;18.87;16.87;;;2.30;99.90;;;;;;4885796;29;20495;-90
2021/03/19 06:46:58;;;;;;;17.07;15.30;;;2.30;99.90;;;;;;4869181;29;20442;-90
2021/03/19 06:49:26;;;;;;;17.03;13.30;;;2.40;99.90;;;;;;4865061;29;20496;-91
2021/03/19 06:51:54;;;;;;;15.40;13.67;;;2.60;99.90;;;;;;4870227;29;20462;-90
2021/03/19 06:54:44;;;;;;;17.93;14.77;;;2.80;99.90;;;;;;4887667;29;20536;-91
2021/03/19 06:57:13;;;;;;;16.30;13.63;;;2.80;99.90;;;;;;4867659;29;21626;-88
2021/03/19 06:59:54;;;;;;;15.43;13.83;;;3.00;99.90;;;;;;4864668;29;20872;-89
2021/03/19 07:02:20;;;;;;;14.87;12.67;;;3.00;99.90;;;;;;4867286;29;20967;-88
2021/03/19 07:05:11;;;;;;;15.97;13.63;;;3.00;99.90;;;;;;4880832;29;20528;-90
2021/03/19 07:08:01;;;;;;;15.60;13.50;;;3.00;99.90;;;;;;4873781;29;20206;-91
2021/03/19 07:10:43;;;;;;;13.83;12.43;;;3.20;99.90;;;;;;4880857;29;20523;-88
2021/03/19 07:13:36;;;;;;;16.67;14.33;;;3.20;99.90;;;;;;4859249;29;20584;-91
2021/03/19 07:16:31;;;;;;;16.83;12.87;;;3.40;99.90;;;;;;4878409;29;20506;-89
2021/03/19 07:19:08;;;;;;;17.50;13.50;;;3.50;99.90;;;;;;4860725;29;20522;-90
2021/03/19 07:22:02;;;;;;;16.20;13.23;;;3.50;99.90;;;;;;4878786;29;20528;-88
2021/03/19 07:25:00;;;;;;;16.77;11.83;;;3.50;99.90;;;;;;4879105;29;20776;-88
2021/03/19 07:28:08;;;;;;;13.53;12.10;;;3.50;99.90;;;;;;4849327;29;21297;-90
2021/03/19 07:30:54;;;;;;;14.13;12.17;;;3.40;99.90;;;;;;4865824;29;20460;-83
2021/03/19 07:33:34;;;;;;;14.47;12.07;;;3.40;99.90;;;;;;4868319;29;20541;-85
2021/03/19 07:36:35;;;;;;;12.97;11.30;;;3.20;99.90;;;;;;4884610;29;20458;-84
2021/03/19 07:39:23;;;;;;;18.43;13.40;;;2.90;99.90;;;;;;4863353;29;20453;-84
2021/03/19 07:42:10;;;;;;;16.43;13.50;;;2.70;99.90;;;;;;4873686;29;20683;-84
2021/03/19 07:44:43;;;;;;;14.37;12.53;;;2.90;99.90;;;;;;4862271;29;20501;-85
2021/03/19 07:47:33;;;;;;;16.00;12.03;;;3.00;99.90;;;;;;4862981;29;20449;-85
2021/03/19 07:50:53;;;;;;;18.10;11.63;;;3.20;99.90;;;;;;4875057;29;20509;-85
2021/03/19 07:53:43;;;;;;;12.90;10.97;;;3.70;99.90;;;;;;4823536;29;20831;-85
2021/03/19 07:56:14;;;;;;;16.53;12.00;;;3.80;99.90;;;;;;4881995;29;20565;-84
2021/03/19 07:58:47;;;;;;;14.80;13.30;;;3.80;99.90;;;;;;4878274;29;20450;-85
2021/03/19 08:01:15;;;;;;;15.70;13.30;;;3.90;99.90;;;;;;4861313;29;20823;-85
2021/03/19 08:03:48;;;;;;;16.40;13.30;;;4.10;99.90;;;;;;4875798;29;20480;-84
2021/03/19 08:06:23;;;;;;;15.53;13.60;;;4.20;99.90;;;;;;4862282;29;20996;-86
2021/03/19 08:09:47;;;;;;;15.13;12.97;;;4.00;99.90;;;;;;4860031;29;20829;-88
2021/03/19 08:12:42;;;;;;;15.13;13.17;;;4.10;99.90;;;;;;4843265;29;20460;-88
2021/03/19 08:15:37;;;;;;;14.30;12.77;;;4.20;99.90;;;;;;4864361;29;20487;-88
2021/03/19 08:18:03;;;;;;;18.40;14.13;;;4.20;99.90;;;;;;4859529;29;20476;-88
2021/03/19 08:20:45;;;;;;;14.47;12.93;;;4.10;99.90;;;;;;4861341;29;20544;-88
2021/03/19 08:23:28;;;;;;;19.87;13.50;;;4.00;99.90;;;;;;4856338;29;20758;-87
2021/03/19 08:25:54;;;;;;;15.20;12.50;;;4.00;99.90;;;;;;4862195;29;20568;-86
2021/03/19 08:28:26;;;;;;;15.10;13.43;;;4.20;99.90;;;;;;4861588;29;20857;-86
2021/03/19 08:31:22;;;;;;;22.63;14.97;;;4.50;99.90;;;;;;4863366;29;20510;-87
2021/03/19 08:34:05;;;;;;;18.47;15.00;;;4.30;99.90;;;;;;4863024;29;20929;-87
2021/03/19 08:36:43;;;;;;;17.57;14.73;;;4.30;99.90;;;;;;4865327;29;20983;-88
2021/03/19 08:39:57;;;;;;;15.10;13.50;;;4.40;99.90;;;;;;4864159;29;20533;-90
2021/03/19 08:42:38;;;;;;;17.60;14.60;;;4.40;99.90;;;;;;4831027;29;20460;-90
2021/03/19 08:45:08;;;;;;;18.90;16.10;;;4.50;99.90;;;;;;4859102;29;20524;-91
2021/03/19 08:47:40;;;;;;;19.67;16.97;;;4.40;99.90;;;;;;4859804;29;20497;-91
2021/03/19 08:50:37;;;;;;;20.13;16.30;;;4.20;99.90;;;;;;4859449;29;20457;-91
2021/03/19 08:53:04;;;;;;;18.67;15.50;;;4.20;99.90;;;;;;4883688;29;20430;-88
2021/03/19 08:55:35;;;;;;;20.30;16.13;;;4.40;99.90;;;;;;4862641;29;20498;-89
2021/03/19 08:58:29;;;;;;;20.43;14.73;;;4.40;99.90;;;;;;4865788;29;21126;-87
2021/03/19 09:01:03;;;;;;;15.43;12.37;;;4.50;99.90;;;;;;4877294;29;20456;-85
2021/03/19 09:03:51;;;;;;;15.33;12.93;;;4.80;99.90;;;;;;4867499;29;20449;-83
2021/03/19 09:06:27;;;;;;;15.00;12.70;;;4.90;99.90;;;;;;4863321;29;20760;-85
2021/03/19 09:08:55;;;;;;;15.50;12.83;;;5.10;99.90;;;;;;4864189;29;20552;-85
2021/03/19 09:11:24;;;;;;;18.47;13.87;;;5.10;99.90;;;;;;4876931;29;20976;-87
2021/03/19 09:14:35;;;;;;;17.70;13.60;;;4.90;99.90;;;;;;4864286;29;20480;-87
2021/03/19 09:17:06;;;;;;;32.57;26.33;;;4.70;99.90;;;;;;4857424;29;20593;-85
2021/03/19 09:19:52;;;;;;;17.30;14.67;;;4.50;99.90;;;;;;4864649;29;20452;-83
2021/03/19 09:22:24;;;;;;;17.20;15.10;;;4.50;99.90;;;;;;4866835;29;20537;-84
2021/03/19 09:27:46;;;;;;;19.63;16.03;;;3.80;99.90;;;;;;4871748;29;20449;-82
2021/03/19 09:30:21;;;;;;;18.33;16.30;;;3.60;99.90;;;;;;4870725;29;20448;-82
2021/03/19 09:32:49;;;;;;;18.60;15.77;;;3.50;99.90;;;;;;4885544;29;20598;-81
2021/03/19 09:35:44;;;;;;;18.60;15.50;;;3.40;99.90;;;;;;4881968;29;20531;-81
2021/03/19 09:38:33;;;;;;;19.80;16.03;;;3.30;99.90;;;;;;4878380;29;20529;-83
2021/03/19 09:44:27;;;;;;;22.27;16.47;;;2.90;99.90;;;;;;4886063;29;20455;-82
2021/03/19 09:47:00;;;;;;;18.20;15.33;;;2.90;99.90;;;;;;4882737;29;22078;-83
2021/03/19 09:49:28;;;;;;;18.13;13.63;;;3.10;99.90;;;;;;4868408;29;20459;-81
2021/03/19 09:51:54;;;;;;;15.80;12.03;;;3.20;99.90;;;;;;4870018;29;20437;-82
2021/03/19 09:54:28;;;;;;;15.43;12.73;;;3.40;99.90;;;;;;4881444;29;20532;-85
2021/03/19 09:57:02;;;;;;;14.13;11.50;;;3.60;99.90;;;;;;4881598;29;21706;-84
2021/03/19 09:59:34;;;;;;;14.73;12.50;;;4.00;99.90;;;;;;4867533;29;20835;-85
2021/03/19 10:02:01;;;;;;;14.30;11.37;;;4.60;99.90;;;;;;4863480;29;20460;-87
2021/03/19 10:04:35;;;;;;;15.80;11.83;;;5.00;99.90;;;;;;4865499;29;20445;-88
2021/03/19 10:07:11;;;;;;;14.40;12.90;;;5.30;99.90;;;;;;4872270;29;20453;-89
2021/03/19 10:09:50;;;;;;;14.30;11.77;;;5.40;99.90;;;;;;4867708;29;20619;-90
2021/03/19 10:12:21;;;;;;;13.33;10.70;;;5.10;99.90;;;;;;4867328;29;20482;-89
2021/03/19 10:14:51;;;;;;;14.00;11.53;;;5.00;99.90;;;;;;4864863;29;20620;-91
2021/03/19 10:17:22;;;;;;;14.10;11.93;;;4.80;99.90;;;;;;4875870;29;20803;-89
2021/03/19 10:20:03;;;;;;;14.83;11.60;;;4.90;99.90;;;;;;4864364;29;20445;-89
2021/03/19 10:22:31;;;;;;;12.93;11.00;;;5.10;99.90;;;;;;4867320;29;20452;-91
2021/03/19 10:25:19;;;;;;;19.67;11.23;;;5.30;99.90;;;;;;4866971;29;20480;-90
2021/03/19 10:27:49;;;;;;;13.70;11.00;;;5.30;99.90;;;;;;4861636;29;20457;-91
2021/03/19 10:30:20;;;;;;;11.07;9.90;;;5.50;99.90;;;;;;4865633;29;20449;-91
2021/03/19 10:32:46;;;;;;;11.90;9.00;;;5.60;99.90;;;;;;4869338;29;20446;-90
2021/03/19 10:35:19;;;;;;;12.20;10.13;;;5.80;99.90;;;;;;4886166;29;20536;-92
2021/03/19 10:37:52;;;;;;;11.40;10.27;;;6.00;99.90;;;;;;4866555;29;20532;-89
2021/03/19 10:40:35;;;;;;;12.47;10.20;;;6.20;99.90;;;;;;4869664;29;20486;-90
2021/03/19 10:43:10;;;;;;;15.27;13.30;;;6.70;99.90;;;;;;4879460;29;20473;-90
2021/03/19 10:45:42;;;;;;;12.83;10.40;;;7.00;99.90;;;;;;4878753;29;20604;-88
2021/03/19 10:48:30;;;;;;;10.00;8.90;;;7.10;99.90;;;;;;4864772;29;20497;-89
2021/03/19 10:50:59;;;;;;;11.93;10.50;;;7.30;99.90;;;;;;4873102;29;20443;-90
2021/03/19 10:53:55;;;;;;;16.33;13.53;;;7.40;99.90;;;;;;4870187;29;20463;-90
2021/03/19 10:56:22;;;;;;;10.37;9.27;;;7.70;99.90;;;;;;4866369;29;20462;-90
2021/03/19 10:58:53;;;;;;;11.10;9.93;;;7.80;99.90;;;;;;4868362;29;20464;-89
2021/03/19 11:01:49;;;;;;;8.13;7.33;;;8.00;99.90;;;;;;4865156;29;20517;-89
2021/03/19 11:04:43;;;;;;;8.00;7.20;;;7.90;99.90;;;;;;4851552;29;20475;-90
2021/03/19 11:07:25;;;;;;;7.13;6.47;;;8.30;99.90;;;;;;4862942;29;20453;-89
2021/03/19 11:10:03;;;;;;;6.77;6.10;;;8.80;99.90;;;;;;4869686;29;20875;-89
2021/03/19 11:12:56;;;;;;;5.73;5.23;;;9.40;99.90;;;;;;4871608;29;20450;-89
2021/03/19 11:15:28;;;;;;;6.97;6.00;;;10.10;97.70;;;;;;4880414;29;20911;-89
2021/03/19 11:18:14;;;;;;;7.10;6.40;;;9.10;98.00;;;;;;4869685;29;20493;-89
2021/03/19 11:20:41;;;;;;;7.83;7.07;;;8.50;99.40;;;;;;4867696;29;20442;-89
2021/03/19 11:23:34;;;;;;;7.00;6.30;;;8.00;99.80;;;;;;4864266;29;21285;-89
2021/03/19 11:26:12;;;;;;;6.70;6.10;;;7.50;99.90;;;;;;4869460;29;20449;-89
2021/03/19 11:28:43;;;;;;;4.87;4.37;;;7.20;99.90;;;;;;4867034;29;20452;-89
2021/03/19 11:31:53;;;;;;;6.80;5.40;;;6.50;99.90;;;;;;4867982;29;20451;-90
2021/03/19 11:34:30;;;;;;;4.07;3.67;;;6.40;99.90;;;;;;4864863;29;21031;-89
2021/03/19 11:37:03;;;;;;;5.20;4.70;;;6.20;99.90;;;;;;4870404;29;20513;-89
2021/03/19 11:39:43;;;;;;;5.43;4.93;;;6.00;99.90;;;;;;4868210;29;20480;-89
2021/03/19 11:42:13;;;;;;;7.03;6.27;;;5.90;99.90;;;;;;4870334;29;21103;-89
2021/03/19 11:44:40;;;;;;;7.17;6.20;;;5.90;99.90;;;;;;4865184;29;20823;-89
2021/03/19 11:47:20;;;;;;;7.20;6.40;;;6.20;99.90;;;;;;4867148;29;20472;-89
2021/03/19 11:49:47;;;;;;;5.93;5.33;;;6.70;99.90;;;;;;4866030;29;20483;-89
2021/03/19 11:52:15;;;;;;;5.67;5.17;;;6.60;99.90;;;;;;4869252;29;20857;-89
2021/03/19 11:55:04;;;;;;;5.50;5.00;;;6.80;99.90;;;;;;4866803;29;20987;-89
2021/03/19 11:57:30;;;;;;;8.63;5.33;;;6.80;99.90;;;;;;4864588;29;20450;-89
2021/03/19 11:59:56;;;;;;;5.60;5.10;;;7.30;99.90;;;;;;4863857;29;20880;-90
2021/03/19 12:02:34;;;;;;;6.03;5.43;;;7.20;99.90;;;;;;4866754;29;20194;-89
2021/03/19 12:05:00;;;;;;;7.33;6.10;;;6.70;99.90;;;;;;4866228;29;20296;-89
2021/03/19 12:07:28;;;;;;;5.50;5.00;;;6.30;99.90;;;;;;4867676;29;20633;-89
2021/03/19 12:09:59;;;;;;;7.10;6.00;;;6.10;99.90;;;;;;4881060;29;20548;-89
2021/03/19 12:12:25;;;;;;;6.30;5.70;;;5.50;99.90;;;;;;4881747;29;20228;-89
2021/03/19 12:15:04;;;;;;;5.37;4.90;;;5.40;99.90;;;;;;4883074;29;20581;-90
2021/03/19 12:17:30;;;;;;;5.50;5.00;;;5.60;99.90;;;;;;4878863;29;20456;-89
2021/03/19 12:19:58;;;;;;;5.37;4.87;;;5.70;99.90;;;;;;4867668;29;20784;-89
2021/03/19 12:22:26;;;;;;;5.77;5.27;;;5.80;99.90;;;;;;4868313;29;20197;-89
2021/03/19 12:24:52;;;;;;;5.10;4.70;;;5.80;99.90;;;;;;4865179;29;21013;-89
2021/03/19 12:27:22;;;;;;;5.30;4.80;;;5.90;99.90;;;;;;4863815;29;20211;-89
2021/03/19 12:29:51;;;;;;;6.03;5.43;;;6.00;99.90;;;;;;4883252;29;20691;-88
2021/03/19 12:32:18;;;;;;;5.40;4.90;;;6.00;99.90;;;;;;4866537;29;20461;-90
2021/03/19 12:34:46;;;;;;;5.77;4.90;;;6.20;99.90;;;;;;4866194;29;20500;-89
2021/03/19 12:37:11;;;;;;;6.13;5.53;;;6.60;99.90;;;;;;4883444;29;20437;-89
2021/03/19 12:39:37;;;;;;;6.17;5.17;;;7.00;99.90;;;;;;4867086;29;20469;-89
2021/03/19 12:42:05;;;;;;;5.77;5.27;;;7.10;99.90;;;;;;4864426;29;20250;-89
2021/03/19 12:44:31;;;;;;;5.60;5.03;;;6.80;99.90;;;;;;4865937;29;20549;-89
2021/03/19 12:46:58;;;;;;;6.20;5.60;;;6.90;99.90;;;;;;4866197;29;20538;-89
2021/03/19 12:49:24;;;;;;;6.40;5.80;;;6.70;99.90;;;;;;4866153;29;20201;-89
2021/03/19 12:51:50;;;;;;;5.67;5.17;;;6.60;99.90;;;;;;4879521;29;20456;-89
2021/03/19 12:54:17;;;;;;;5.73;5.23;;;6.20;99.90;;;;;;4864109;29;20498;-89
2021/03/19 12:56:42;;;;;;;6.03;5.00;;;6.50;99.90;;;;;;4867697;29;20535;-88
2021/03/19 12:59:08;;;;;;;5.67;5.10;;;6.70;99.90;;;;;;4872139;29;20564;-88
2021/03/19 13:01:34;;;;;;;6.30;5.30;;;6.40;99.90;;;;;;4869149;29;20650;-89
2021/03/19 13:04:00;;;;;;;6.43;5.73;;;6.30;99.90;;;;;;4867605;29;20587;-89
2021/03/19 13:06:27;;;;;;;7.63;6.60;;;6.40;99.90;;;;;;4871182;29;20194;-90
2021/03/19 13:08:53;;;;;;;6.90;6.20;;;6.30;99.90;;;;;;4866880;29;20888;-91
2021/03/19 13:11:20;;;;;;;5.90;5.30;;;6.40;99.90;;;;;;4868916;29;20545;-90
2021/03/19 13:13:46;;;;;;;6.57;5.63;;;6.50;99.90;;;;;;4865066;29;20504;-91
2021/03/19 13:16:12;;;;;;;6.93;5.63;;;6.20;99.90;;;;;;4860448;29;20505;-88
2021/03/19 13:18:38;;;;;;;6.63;5.30;;;6.20;99.90;;;;;;4865365;29;20457;-89
2021/03/19 13:21:05;;;;;;;6.43;5.70;;;6.20;99.90;;;;;;4864805;29;20488;-88
2021/03/19 13:23:32;;;;;;;7.80;5.90;;;6.30;99.90;;;;;;4866066;29;20605;-89
2021/03/19 13:25:58;;;;;;;8.60;6.90;;;6.40;99.90;;;;;;4867333;29;20458;-90
2021/03/19 13:28:24;;;;;;;9.13;6.23;;;6.30;99.90;;;;;;4865196;29;20465;-87
2021/03/19 13:30:50;;;;;;;7.27;6.20;;;6.20;99.90;;;;;;4863028;29;20471;-88
2021/03/19 13:33:18;;;;;;;9.30;7.10;;;5.80;99.90;;;;;;4866180;29;20211;-88